createdAt,value
2023-05-09T00:00:32.785Z,54.19
2023-05-09T00:03:00.093Z,54.00
2023-05-09T00:05:26.675Z,53.38
2023-05-09T00:07:53.153Z,52.85
2023-05-09T00:10:19.845Z,52.82
2023-05-09T00:12:47.234Z,53.61
2023-05-09T00:15:14.012Z,52.73
2023-05-09T00:17:40.805Z,52.19
2023-05-09T00:20:11.574Z,52.22
2023-05-09T00:22:40.595Z,51.20
2023-05-09T00:25:11.553Z,50.22
2023-05-09T00:27:38.410Z,48.92
2023-05-09T00:30:06.205Z,48.23
2023-05-09T00:32:33.712Z,48.07
2023-05-09T00:35:00.166Z,47.83
2023-05-09T00:37:26.779Z,47.66
2023-05-09T00:39:53.286Z,46.38
2023-05-09T00:42:19.786Z,46.63
2023-05-09T00:44:46.507Z,47.09
2023-05-09T00:47:13.003Z,48.25
2023-05-09T00:49:39.659Z,48.20
2023-05-09T00:52:06.288Z,48.18
2023-05-09T00:54:32.896Z,46.83
2023-05-09T00:56:59.370Z,46.17
2023-05-09T00:59:26.237Z,46.09
2023-05-09T01:01:52.733Z,46.12
2023-05-09T01:04:19.335Z,45.87
2023-05-09T01:07:00.967Z,45.59
2023-05-09T01:10:01.710Z,46.09
2023-05-09T01:12:42.138Z,47.80
2023-05-09T01:15:18.440Z,48.81
2023-05-09T01:18:01.093Z,48.28
2023-05-09T01:20:35.540Z,48.50
2023-05-09T01:23:15.455Z,48.67
2023-05-09T01:26:11.812Z,49.97
2023-05-09T01:28:41.377Z,50.49
2023-05-09T01:31:08.998Z,55.89
2023-05-09T01:33:38.908Z,52.27
2023-05-09T01:36:12.126Z,47.17
2023-05-09T01:38:41.099Z,45.41
2023-05-09T01:41:10.709Z,44.39
2023-05-09T01:43:38.658Z,43.30
2023-05-09T01:46:06.065Z,42.74
2023-05-09T01:48:36.181Z,42.67
2023-05-09T01:51:03.796Z,45.42
2023-05-09T01:53:31.028Z,47.95
2023-05-09T01:56:00.005Z,51.83
2023-05-09T01:58:27.893Z,51.42
2023-05-09T02:00:54.448Z,47.21
2023-05-09T02:03:22.345Z,43.46
2023-05-09T02:05:50.040Z,41.32
2023-05-09T02:08:21.066Z,40.39
2023-05-09T02:10:49.071Z,39.60
2023-05-09T02:13:16.092Z,39.65
2023-05-09T02:15:43.541Z,39.45
2023-05-09T02:18:09.952Z,39.19
2023-05-09T02:20:36.581Z,38.47
2023-05-09T02:23:03.911Z,38.30
2023-05-09T02:25:31.818Z,37.70
2023-05-09T02:27:59.724Z,36.57
2023-05-09T02:30:26.866Z,36.68
2023-05-09T02:32:58.567Z,36.30
2023-05-09T02:35:27.293Z,36.21
2023-05-09T02:37:54.668Z,35.78
2023-05-09T02:40:22.464Z,33.52
2023-05-09T02:42:48.862Z,33.31
2023-05-09T02:45:15.809Z,33.54
2023-05-09T02:47:42.568Z,33.51
2023-05-09T02:50:09.201Z,32.69
2023-05-09T02:52:37.413Z,31.77
2023-05-09T02:55:04.605Z,31.08
2023-05-09T02:57:33.952Z,30.93
2023-05-09T03:00:00.738Z,30.37
2023-05-09T03:02:28.209Z,30.37
2023-05-09T03:04:55.184Z,30.73
2023-05-09T03:07:21.576Z,29.60
2023-05-09T03:09:48.060Z,28.60
2023-05-09T03:12:14.554Z,26.87
2023-05-09T03:14:41.081Z,27.15
2023-05-09T03:17:07.549Z,26.31
2023-05-09T03:19:35.649Z,26.55
2023-05-09T03:22:02.037Z,27.61
2023-05-09T03:24:31.921Z,28.40
2023-05-09T03:26:58.378Z,26.23
2023-05-09T03:29:25.292Z,29.61
2023-05-09T03:31:52.059Z,29.86
2023-05-09T03:34:18.544Z,27.75
2023-05-09T03:36:45.017Z,24.92
2023-05-09T03:39:13.653Z,21.89
2023-05-09T03:41:44.126Z,23.29
2023-05-09T03:44:10.657Z,26.73
2023-05-09T03:46:37.235Z,26.55
2023-05-09T03:49:07.110Z,23.77
2023-05-09T03:51:34.933Z,19.71
2023-05-09T03:54:03.216Z,16.41
2023-05-09T03:56:29.621Z,11.49
2023-05-09T03:58:56.022Z,9.71
2023-05-09T04:01:23.329Z,9.21
2023-05-09T04:03:50.427Z,8.76
2023-05-09T04:06:16.937Z,9.03
2023-05-09T04:08:44.788Z,9.31
2023-05-09T04:11:11.333Z,12.01
2023-05-09T04:13:41.050Z,24.52
2023-05-09T04:16:20.909Z,38.06
2023-05-09T04:18:47.447Z,33.71
2023-05-09T04:21:14.322Z,32.60
2023-05-09T04:23:43.588Z,25.81
2023-05-09T04:26:13.774Z,23.14
2023-05-09T04:28:41.522Z,22.06
2023-05-09T04:31:09.163Z,25.42
2023-05-09T04:33:36.771Z,25.68
2023-05-09T04:36:04.425Z,26.13
2023-05-09T04:38:31.340Z,26.89
2023-05-09T04:40:58.903Z,27.16
2023-05-09T04:43:27.888Z,28.44
2023-05-09T04:45:54.393Z,29.17
2023-05-09T04:48:20.821Z,30.53
2023-05-09T04:50:48.522Z,35.45
2023-05-09T04:53:14.991Z,36.28
2023-05-09T04:55:41.945Z,36.37
2023-05-09T04:58:09.387Z,37.73
2023-05-09T05:00:36.073Z,46.01
2023-05-09T05:03:02.933Z,45.61
2023-05-09T05:05:31.927Z,56.74
2023-05-09T05:07:59.592Z,51.52
2023-05-09T05:10:31.791Z,51.33
2023-05-09T05:13:07.980Z,50.63
2023-05-09T05:15:37.885Z,54.46
2023-05-09T05:18:05.035Z,56.92
2023-05-09T05:20:35.138Z,55.93
2023-05-09T05:23:01.571Z,59.27
2023-05-09T05:25:28.057Z,58.85
2023-05-09T05:27:55.456Z,59.65
2023-05-09T05:30:22.106Z,62.37
2023-05-09T05:32:49.223Z,63.90
2023-05-09T05:35:19.262Z,68.97
2023-05-09T05:37:47.638Z,66.20
2023-05-09T05:40:15.822Z,67.59
2023-05-09T05:42:46.073Z,71.06
2023-05-09T05:45:12.704Z,71.36
2023-05-09T05:47:42.088Z,69.34
2023-05-09T05:50:11.813Z,69.93
2023-05-09T05:52:41.939Z,70.95
2023-05-09T05:55:12.090Z,72.29
2023-05-09T05:57:39.237Z,74.23
2023-05-09T06:00:11.795Z,76.74
2023-05-09T06:02:45.256Z,78.58
2023-05-09T06:05:19.268Z,79.22
2023-05-09T06:07:45.952Z,80.90
2023-05-09T06:10:12.424Z,82.55
2023-05-09T06:12:38.909Z,83.01
2023-05-09T06:15:07.109Z,84.31
2023-05-09T06:17:37.223Z,85.17
2023-05-09T06:20:03.982Z,85.62
2023-05-09T06:22:30.448Z,86.10
2023-05-09T06:24:56.856Z,86.96
2023-05-09T06:27:23.365Z,86.90
2023-05-09T06:29:49.865Z,87.09
2023-05-09T06:32:18.665Z,87.77
2023-05-09T06:34:45.204Z,87.67
2023-05-09T06:37:11.638Z,87.69
2023-05-09T06:39:38.149Z,88.52
2023-05-09T06:42:04.645Z,88.29
2023-05-09T06:44:32.726Z,88.80
2023-05-09T06:46:59.143Z,88.44
2023-05-09T06:49:26.413Z,88.14
2023-05-09T06:51:52.837Z,88.44
2023-05-09T06:54:19.341Z,88.17
2023-05-09T06:56:45.814Z,87.99
2023-05-09T06:59:13.399Z,88.59
2023-05-09T07:01:40.969Z,88.11
2023-05-09T07:04:07.672Z,88.56
2023-05-09T07:06:34.226Z,88.59
2023-05-09T07:09:00.854Z,88.64
2023-05-09T07:11:27.360Z,88.92
2023-05-09T07:13:53.849Z,89.43
2023-05-09T07:16:22.797Z,89.42
2023-05-09T07:18:49.286Z,89.65
2023-05-09T07:21:15.741Z,89.39
2023-05-09T07:23:42.202Z,89.60
2023-05-09T07:26:08.667Z,89.17
2023-05-09T07:28:35.252Z,89.36
2023-05-09T07:31:01.678Z,89.06
2023-05-09T07:33:28.144Z,88.99
2023-05-09T07:35:54.694Z,89.10
2023-05-09T07:38:21.147Z,89.30
2023-05-09T07:40:47.697Z,88.56
2023-05-09T07:43:14.234Z,88.34
2023-05-09T07:45:40.931Z,88.20
2023-05-09T07:48:07.646Z,88.55
2023-05-09T07:50:34.144Z,87.26
2023-05-09T07:53:00.784Z,86.07
2023-05-09T07:55:27.181Z,85.87
2023-05-09T07:57:53.591Z,84.99
2023-05-09T08:00:23.844Z,85.49
2023-05-09T08:02:54.322Z,85.00
2023-05-09T08:05:20.946Z,83.46
2023-05-09T08:07:47.361Z,82.83
2023-05-09T08:10:13.899Z,82.29
2023-05-09T08:12:40.420Z,82.64
2023-05-09T08:15:07.579Z,82.78
2023-05-09T08:17:34.084Z,82.13
2023-05-09T08:20:00.598Z,80.79
2023-05-09T08:22:27.103Z,79.46
2023-05-09T08:24:53.537Z,79.66
2023-05-09T08:27:19.922Z,79.19
2023-05-09T08:29:46.352Z,79.37
2023-05-09T08:32:12.874Z,80.01
2023-05-09T08:34:39.293Z,78.37
2023-05-09T08:37:05.805Z,80.03
2023-05-09T08:39:34.901Z,79.58
2023-05-09T08:42:02.693Z,78.35
2023-05-09T08:44:30.860Z,77.55
2023-05-09T08:47:02.240Z,74.35
2023-05-09T08:49:29.491Z,78.30
2023-05-09T08:51:56.803Z,75.60
2023-05-09T08:54:24.655Z,73.24
2023-05-09T08:56:51.587Z,73.86
2023-05-09T08:59:18.935Z,76.25
2023-05-09T09:01:45.947Z,77.49
2023-05-09T09:04:12.553Z,75.96
2023-05-09T09:06:40.082Z,74.73
2023-05-09T09:09:11.142Z,74.90
2023-05-09T09:11:38.985Z,71.89
2023-05-09T09:14:15.505Z,74.85
2023-05-09T09:16:44.404Z,75.59
2023-05-09T09:19:16.444Z,75.74
2023-05-09T09:21:45.503Z,76.34
2023-05-09T09:24:21.394Z,76.00
2023-05-09T09:26:49.532Z,74.96
2023-05-09T09:29:17.731Z,76.47
2023-05-09T09:31:48.194Z,77.26
2023-05-09T09:34:22.306Z,78.72
2023-05-09T09:36:49.533Z,79.33
2023-05-09T09:39:16.273Z,78.96
2023-05-09T09:41:44.536Z,77.95
2023-05-09T09:44:14.276Z,74.37
2023-05-09T09:46:51.883Z,73.62
2023-05-09T09:49:26.600Z,75.89
2023-05-09T09:51:58.046Z,75.27
2023-05-09T09:54:27.916Z,77.24
2023-05-09T09:56:55.103Z,76.05
2023-05-09T09:59:24.967Z,74.47
2023-05-09T10:01:54.390Z,74.00
2023-05-09T10:04:21.113Z,74.83
2023-05-09T10:06:55.085Z,72.43
2023-05-09T10:09:23.546Z,74.09
2023-05-09T10:11:54.458Z,75.23
2023-05-09T10:14:25.947Z,72.69
2023-05-09T10:16:56.669Z,69.44
2023-05-09T10:19:25.051Z,70.89
2023-05-09T10:21:55.135Z,69.47
2023-05-09T10:24:28.488Z,75.37
2023-05-09T10:27:04.130Z,69.73
2023-05-09T10:29:35.033Z,68.89
2023-05-09T10:32:09.552Z,64.74
2023-05-09T10:34:40.258Z,62.07
2023-05-09T10:37:08.837Z,67.39
2023-05-09T10:39:36.949Z,66.55
2023-05-09T10:42:05.018Z,66.99
2023-05-09T10:44:32.442Z,64.15
2023-05-09T10:46:59.647Z,61.69
2023-05-09T10:49:26.682Z,63.30
2023-05-09T10:51:53.093Z,60.85
2023-05-09T10:54:30.702Z,60.10
2023-05-09T10:56:57.860Z,61.23
2023-05-09T10:59:35.610Z,62.99
2023-05-09T11:02:03.327Z,63.00
2023-05-09T11:04:31.190Z,60.48
2023-05-09T11:06:58.393Z,64.29
2023-05-09T11:09:28.875Z,65.24
2023-05-09T11:14:30.581Z,64.58
2023-05-09T11:16:58.935Z,66.73
2023-05-09T11:19:49.435Z,65.58
2023-05-09T11:22:16.865Z,63.20
2023-05-09T11:25:05.078Z,58.39
2023-05-09T11:27:48.574Z,61.50
2023-05-09T11:30:17.482Z,55.66
2023-05-09T11:33:00.917Z,51.00
2023-05-09T11:35:27.982Z,49.65
2023-05-09T11:38:06.119Z,54.90
2023-05-09T11:40:34.484Z,51.82
2023-05-09T11:43:01.751Z,51.68
2023-05-09T11:45:30.773Z,56.54
2023-05-09T11:47:57.574Z,62.64
2023-05-09T11:50:24.681Z,60.11
2023-05-09T11:52:51.411Z,58.56
2023-05-09T11:55:22.431Z,57.98
2023-05-09T11:57:51.750Z,53.94
2023-05-09T12:00:20.898Z,53.50
2023-05-09T12:02:47.695Z,55.29
2023-05-09T12:05:19.102Z,46.11
2023-05-09T12:07:46.934Z,46.08
2023-05-09T12:10:16.249Z,44.25
2023-05-09T12:12:45.800Z,51.47
2023-05-09T12:15:13.974Z,48.57
2023-05-09T12:17:45.372Z,38.23
2023-05-09T12:20:12.083Z,33.80
2023-05-09T12:22:38.876Z,38.19
2023-05-09T12:25:07.571Z,41.32
2023-05-09T12:27:38.381Z,45.43
2023-05-09T12:30:10.817Z,45.79
2023-05-09T12:32:40.242Z,42.06
2023-05-09T12:35:08.603Z,39.82
2023-05-09T12:37:35.017Z,50.73
2023-05-09T12:40:02.472Z,45.17
2023-05-09T12:42:29.347Z,48.46
2023-05-09T12:44:56.701Z,38.12
2023-05-09T12:47:27.266Z,37.79
2023-05-09T12:49:57.527Z,39.18
2023-05-09T12:52:23.984Z,37.99
2023-05-09T12:54:52.618Z,42.33
2023-05-09T12:57:23.997Z,41.44
2023-05-09T12:59:50.649Z,43.10
2023-05-09T13:02:17.774Z,48.57
2023-05-09T13:04:44.265Z,49.46
2023-05-09T13:07:10.871Z,49.24
2023-05-09T13:09:55.407Z,54.92
2023-05-09T13:12:21.846Z,56.85
2023-05-09T13:14:48.409Z,52.52
2023-05-09T13:17:14.899Z,53.18
2023-05-09T13:19:41.327Z,57.84
2023-05-09T13:22:07.706Z,57.07
2023-05-09T13:24:34.089Z,57.64
2023-05-09T13:27:00.545Z,60.39
2023-05-09T13:29:26.945Z,57.91
2023-05-09T13:31:53.375Z,60.70
2023-05-09T13:34:19.834Z,59.01
2023-05-09T13:36:46.307Z,62.75
2023-05-09T13:39:13.435Z,59.75
2023-05-09T13:41:39.841Z,57.66
2023-05-09T13:44:06.285Z,60.79
2023-05-09T13:46:32.824Z,61.91
2023-05-09T13:48:59.403Z,58.61
2023-05-09T13:51:25.882Z,56.84
2023-05-09T13:53:52.466Z,53.77
2023-05-09T13:56:19.476Z,51.79
2023-05-09T13:58:45.940Z,52.43
2023-05-09T14:01:12.457Z,56.56
2023-05-09T14:03:39.058Z,53.46
2023-05-09T14:06:05.759Z,52.92
2023-05-09T14:08:32.278Z,50.29
2023-05-09T14:10:58.676Z,59.38
2023-05-09T14:13:25.342Z,56.72
2023-05-09T14:15:51.890Z,52.64
2023-05-09T14:18:20.739Z,51.39
2023-05-09T14:20:47.332Z,53.30
2023-05-09T14:23:13.712Z,53.71
2023-05-09T14:25:40.093Z,55.03
2023-05-09T14:28:09.171Z,55.06
2023-05-09T14:30:36.521Z,53.79
2023-05-09T14:33:03.005Z,53.32
2023-05-09T14:35:32.735Z,53.30
2023-05-09T14:38:00.414Z,55.49
2023-05-09T14:40:31.687Z,50.93
2023-05-09T14:42:59.294Z,50.78
2023-05-09T14:45:26.423Z,54.92
2023-05-09T14:47:53.391Z,54.77
2023-05-09T14:50:21.595Z,51.46
2023-05-09T14:52:50.127Z,51.04
2023-05-09T14:55:18.045Z,56.82
2023-05-09T14:57:44.467Z,56.45
2023-05-09T15:00:20.431Z,50.63
2023-05-09T15:02:48.163Z,48.25
2023-05-09T15:05:14.677Z,44.78
2023-05-09T15:07:41.423Z,40.26
2023-05-09T15:10:08.193Z,39.61
2023-05-09T15:12:34.573Z,46.37
2023-05-09T15:15:17.160Z,42.81
2023-05-09T15:17:44.791Z,40.38
2023-05-09T15:20:12.216Z,41.51
2023-05-09T15:22:38.650Z,41.51
2023-05-09T15:25:06.280Z,42.10
2023-05-09T15:27:32.862Z,42.78
2023-05-09T15:29:59.309Z,46.77
2023-05-09T15:32:26.072Z,46.46
2023-05-09T15:34:52.774Z,47.25
2023-05-09T15:37:19.213Z,48.81
2023-05-09T15:39:46.240Z,51.99
2023-05-09T15:42:13.415Z,47.50
2023-05-09T15:44:40.726Z,44.09
2023-05-09T15:47:07.834Z,44.19
2023-05-09T15:49:34.540Z,44.60
2023-05-09T15:52:03.906Z,45.31
2023-05-09T15:54:31.741Z,49.96
2023-05-09T15:56:59.189Z,49.28
2023-05-09T15:59:26.377Z,48.30
2023-05-09T16:01:53.159Z,43.34
2023-05-09T16:04:19.767Z,43.91
2023-05-09T16:06:47.157Z,50.60
2023-05-09T16:09:13.820Z,50.19
2023-05-09T16:11:41.429Z,47.90
2023-05-09T16:14:11.263Z,45.05
2023-05-09T16:16:38.415Z,43.84
2023-05-09T16:19:08.661Z,52.42
2023-05-09T16:21:37.527Z,55.44
2023-05-09T16:24:04.875Z,54.27
2023-05-09T16:26:31.409Z,50.90
2023-05-09T16:28:57.949Z,47.53
2023-05-09T16:31:26.582Z,47.36
2023-05-09T16:33:54.154Z,45.29
2023-05-09T16:36:21.245Z,44.63
2023-05-09T16:38:47.818Z,44.96
2023-05-09T16:41:14.466Z,40.85
2023-05-09T16:43:41.412Z,41.01
2023-05-09T16:46:08.296Z,40.90
2023-05-09T16:48:34.829Z,40.12
2023-05-09T16:51:01.291Z,39.78
2023-05-09T16:53:28.062Z,38.84
2023-05-09T16:55:54.719Z,34.86
2023-05-09T16:58:21.153Z,33.43
2023-05-09T17:00:47.847Z,30.73
2023-05-09T17:03:14.419Z,28.48
2023-05-09T17:05:40.898Z,27.39
2023-05-09T17:08:07.646Z,25.01
2023-05-09T17:10:35.815Z,23.29
2023-05-09T17:13:08.368Z,20.97
2023-05-09T17:15:34.897Z,19.28
2023-05-09T17:18:01.528Z,17.86
2023-05-09T17:20:28.873Z,15.98
2023-05-09T17:22:56.346Z,11.86
2023-05-09T17:25:23.356Z,8.68
2023-05-09T17:27:49.791Z,8.29
2023-05-09T17:30:16.612Z,6.35
2023-05-09T17:32:43.361Z,4.44
2023-05-09T17:35:10.035Z,4.20
2023-05-09T17:37:36.582Z,4.48
2023-05-09T17:40:05.072Z,3.68
2023-05-09T17:42:32.125Z,2.29
2023-05-09T17:44:58.601Z,2.37
2023-05-09T17:47:25.135Z,1.88
2023-05-09T17:49:52.101Z,0.34
2023-05-09T17:52:18.607Z,0.00
2023-05-09T17:54:45.297Z,0.00
2023-05-09T17:57:11.731Z,0.00
2023-05-09T17:59:40.559Z,0.00
2023-05-09T18:02:08.000Z,0.00
2023-05-09T18:04:34.700Z,0.00
2023-05-09T18:07:01.517Z,0.00
2023-05-09T18:09:28.556Z,0.00
2023-05-09T18:11:55.111Z,0.00
2023-05-09T18:14:21.534Z,0.00
2023-05-09T18:16:48.008Z,0.00
2023-05-09T18:19:14.412Z,0.00
2023-05-09T18:21:40.894Z,0.00
2023-05-09T18:24:09.098Z,0.00
2023-05-09T18:26:35.601Z,0.00
2023-05-09T18:29:02.024Z,0.00
2023-05-09T18:31:28.665Z,0.00
2023-05-09T18:33:55.365Z,0.00
2023-05-09T18:36:21.814Z,0.00
2023-05-09T18:38:48.339Z,0.00
2023-05-09T18:41:15.662Z,0.00
2023-05-09T18:43:45.887Z,0.00
2023-05-09T18:46:22.601Z,0.00
2023-05-09T18:48:52.084Z,0.00
2023-05-09T18:51:19.426Z,0.00
2023-05-09T18:53:49.280Z,0.00
2023-05-09T18:56:16.166Z,0.00
2023-05-09T18:58:42.737Z,0.00
2023-05-09T19:01:11.554Z,0.00
2023-05-09T19:03:45.628Z,0.00
2023-05-09T19:06:13.614Z,0.00
2023-05-09T19:08:41.639Z,0.00
2023-05-09T19:11:08.120Z,0.00
2023-05-09T19:13:38.158Z,0.00
2023-05-09T19:16:05.407Z,0.00
2023-05-09T19:18:31.938Z,0.00
2023-05-09T19:20:58.909Z,0.00
2023-05-09T19:23:28.951Z,0.00
2023-05-09T19:25:55.381Z,0.00
2023-05-09T19:28:22.927Z,0.00
2023-05-09T19:30:50.069Z,0.00
2023-05-09T19:33:16.633Z,0.00
2023-05-09T19:35:43.796Z,0.00
2023-05-09T19:38:11.844Z,0.00
2023-05-09T19:40:39.092Z,0.00
2023-05-09T19:43:06.779Z,0.00
2023-05-09T19:45:33.289Z,0.00
2023-05-09T19:47:59.810Z,0.00
2023-05-09T19:50:26.318Z,0.00
2023-05-09T19:52:52.749Z,0.00
2023-05-09T19:55:19.218Z,0.00
2023-05-09T19:57:45.622Z,0.00
2023-05-09T20:00:12.565Z,0.00
2023-05-09T20:02:39.235Z,0.00
2023-05-09T20:05:06.156Z,0.00
2023-05-09T20:07:32.671Z,0.00
2023-05-09T20:09:59.159Z,0.00
2023-05-09T20:12:27.307Z,0.00
2023-05-09T20:14:55.095Z,0.00
2023-05-09T20:17:21.678Z,0.00
2023-05-09T20:19:48.237Z,0.00
2023-05-09T20:22:14.720Z,0.00
2023-05-09T20:24:41.430Z,0.00
2023-05-09T20:27:08.003Z,0.00
2023-05-09T20:29:34.503Z,0.00
2023-05-09T20:32:01.129Z,0.00
2023-05-09T20:34:27.663Z,0.00
2023-05-09T20:36:54.921Z,0.00
2023-05-09T20:39:22.909Z,0.00
2023-05-09T20:41:50.542Z,0.00
2023-05-09T20:44:17.934Z,0.00
2023-05-09T20:46:45.414Z,0.00
2023-05-09T20:49:12.376Z,0.00
2023-05-09T20:51:39.107Z,0.00
2023-05-09T20:54:05.864Z,0.00
2023-05-09T20:56:33.551Z,0.00
2023-05-09T20:59:00.952Z,0.00
2023-05-09T21:01:27.517Z,0.00
2023-05-09T21:03:54.288Z,0.00
2023-05-09T21:06:20.957Z,0.00
2023-05-09T21:08:47.457Z,0.00
2023-05-09T21:11:14.003Z,0.00
2023-05-09T21:13:40.537Z,0.00
2023-05-09T21:16:07.075Z,0.00
2023-05-09T21:18:33.572Z,0.00
2023-05-09T21:21:02.617Z,0.00
2023-05-09T21:23:29.169Z,0.00
2023-05-09T21:25:55.617Z,0.00
2023-05-09T21:28:22.088Z,0.00
2023-05-09T21:30:52.632Z,0.00
2023-05-09T21:33:19.999Z,0.00
2023-05-09T21:35:46.879Z,0.00
2023-05-09T21:38:13.780Z,0.00
2023-05-09T21:40:41.102Z,0.00
2023-05-09T21:43:07.632Z,0.00
2023-05-09T21:45:34.157Z,0.00
2023-05-09T21:48:00.746Z,0.00
2023-05-09T21:50:27.314Z,0.00
2023-05-09T21:52:56.075Z,0.00
2023-05-09T21:55:22.818Z,0.00
2023-05-09T21:57:49.300Z,0.00
2023-05-09T22:00:16.903Z,0.00
2023-05-09T22:02:43.800Z,0.00
2023-05-09T22:05:11.094Z,0.00
2023-05-09T22:07:37.534Z,0.00
2023-05-09T22:10:05.198Z,0.00
2023-05-09T22:12:31.766Z,0.00
2023-05-09T22:14:58.155Z,0.00
2023-05-09T22:17:24.697Z,0.00
2023-05-09T22:19:51.322Z,0.00
2023-05-09T22:22:17.950Z,0.00
2023-05-09T22:24:44.459Z,0.00
2023-05-09T22:27:11.091Z,0.00
2023-05-09T22:29:37.603Z,0.00
2023-05-09T22:32:04.686Z,0.00
2023-05-09T22:34:31.188Z,0.00
2023-05-09T22:36:57.577Z,0.00
2023-05-09T22:39:24.177Z,0.00
2023-05-09T22:41:50.623Z,0.00
2023-05-09T22:44:17.038Z,0.00
2023-05-09T22:46:43.421Z,0.00
2023-05-09T22:49:09.952Z,0.00
2023-05-09T22:51:36.401Z,0.00
2023-05-09T22:54:02.934Z,0.00
2023-05-09T22:56:29.378Z,0.00
2023-05-09T22:58:55.933Z,0.00
2023-05-09T23:01:22.447Z,0.00
2023-05-09T23:03:48.881Z,0.00
2023-05-09T23:06:15.356Z,0.00
2023-05-09T23:08:41.926Z,0.00
2023-05-09T23:11:08.341Z,0.00
2023-05-09T23:13:34.820Z,0.00
2023-05-09T23:16:01.735Z,0.00
2023-05-09T23:18:28.545Z,0.00
2023-05-09T23:20:54.950Z,0.00
2023-05-09T23:23:21.367Z,0.00
2023-05-09T23:25:47.803Z,0.00
2023-05-09T23:28:14.207Z,0.00
2023-05-09T23:30:40.613Z,0.00
2023-05-09T23:33:07.091Z,0.00
2023-05-09T23:35:33.568Z,0.00
2023-05-09T23:38:00.318Z,0.00
2023-05-09T23:40:26.737Z,0.00
2023-05-09T23:42:53.279Z,0.00
2023-05-09T23:45:19.846Z,0.00
2023-05-09T23:47:46.355Z,0.00
2023-05-09T23:50:13.311Z,0.00
2023-05-09T23:52:41.524Z,0.00
2023-05-09T23:55:08.600Z,0.00
2023-05-09T23:57:35.126Z,0.00
